Time;durP1;ratioP1;P1;durP2;ratioP2;P2;SDS_P1;SDS_P2;PMS_P1;PMS_P2;Temp;Humidity;BMP_temperature;BMP_pressure;BME280_temperature;BME280_humidity;BME280_pressure;Samples;Min_cycle;Max_cycle;Signal;HPM_P1;HPM_P2
2020/12/25 00:02:15;;;;;;;26.85;4.30;;;11.00;99.90;;;;;;5080610;28;20047;-55
2020/12/25 00:05:20;;;;;;;18.20;3.03;;;11.00;99.90;;;;;;5080735;28;20611;-58
2020/12/25 00:08:24;;;;;;;25.90;3.10;;;11.00;99.90;;;;;;5069777;28;20517;-55
2020/12/25 00:11:37;;;;;;;19.67;2.65;;;11.00;99.90;;;;;;5069211;28;20039;-56
2020/12/25 00:14:41;;;;;;;30.77;4.75;;;11.20;99.90;;;;;;5069815;28;20048;-55
2020/12/25 00:17:45;;;;;;;22.80;5.32;;;11.20;99.90;;;;;;5069302;28;20047;-60
2020/12/25 00:20:52;;;;;;;20.83;4.05;;;11.10;99.90;;;;;;5069850;28;20407;-55
2020/12/25 00:23:56;;;;;;;52.30;18.17;;;11.00;99.90;;;;;;5069588;28;20055;-56
2020/12/25 00:27:00;;;;;;;28.45;4.25;;;11.00;99.90;;;;;;5069264;28;20071;-55
2020/12/25 00:30:04;;;;;;;19.13;4.03;;;10.90;99.90;;;;;;5069221;28;20047;-57
2020/12/25 00:33:08;;;;;;;19.48;3.95;;;11.00;99.90;;;;;;5069427;28;20522;-56
2020/12/25 00:36:13;;;;;;;22.23;3.33;;;11.00;99.90;;;;;;5069605;28;20051;-54
2020/12/25 00:39:18;;;;;;;24.67;3.90;;;11.10;99.90;;;;;;5079281;28;20039;-56
2020/12/25 00:42:22;;;;;;;18.25;3.25;;;11.10;99.90;;;;;;5077787;28;20403;-56
2020/12/25 00:45:27;;;;;;;17.00;2.50;;;11.10;99.90;;;;;;5074714;28;20039;-55
2020/12/25 00:48:32;;;;;;;24.20;3.35;;;11.20;99.90;;;;;;5089127;28;20054;-55
2020/12/25 00:51:37;;;;;;;26.85;4.30;;;11.20;99.90;;;;;;5068214;28;20051;-56
2020/12/25 00:54:41;;;;;;;17.27;3.00;;;11.20;99.90;;;;;;5080018;28;20054;-57
2020/12/25 00:57:53;;;;;;;26.33;4.28;;;11.20;99.90;;;;;;5089472;28;20051;-55
2020/12/25 01:00:59;;;;;;;19.63;3.72;;;11.10;99.90;;;;;;5076343;28;20525;-54
2020/12/25 01:04:04;;;;;;;21.52;3.35;;;11.00;99.90;;;;;;5089252;28;20047;-55
2020/12/25 01:07:08;;;;;;;38.55;8.77;;;10.80;99.90;;;;;;5089546;28;20051;-58
2020/12/25 01:10:13;;;;;;;26.60;5.78;;;10.80;99.90;;;;;;5072300;28;20051;-57
2020/12/25 01:13:17;;;;;;;38.10;9.55;;;10.80;99.90;;;;;;5076411;28;20051;-55
2020/12/25 01:16:21;;;;;;;17.52;4.20;;;10.90;99.90;;;;;;5080889;28;20047;-57
2020/12/25 01:19:26;;;;;;;22.60;3.33;;;10.90;99.90;;;;;;5086838;28;20035;-55
2020/12/25 01:22:30;;;;;;;18.63;3.40;;;10.90;99.90;;;;;;5072943;28;20529;-56
2020/12/25 01:25:34;;;;;;;20.48;2.67;;;10.90;99.90;;;;;;5073034;28;20055;-55
2020/12/25 01:28:38;;;;;;;14.23;4.72;;;10.90;99.90;;;;;;5073077;28;20056;-56
2020/12/25 01:31:42;;;;;;;13.95;4.88;;;10.90;99.90;;;;;;5072467;28;20529;-55
2020/12/25 01:34:46;;;;;;;49.88;18.73;;;10.80;99.90;;;;;;5073245;28;20053;-56
2020/12/25 01:37:50;;;;;;;46.35;15.13;;;10.80;99.90;;;;;;5073486;28;20414;-56
2020/12/25 01:40:54;;;;;;;15.63;3.78;;;10.80;99.90;;;;;;5087928;28;20039;-55
2020/12/25 01:43:59;;;;;;;16.05;2.35;;;10.80;99.90;;;;;;5079637;28;20049;-55
2020/12/25 01:47:03;;;;;;;16.42;2.72;;;11.00;99.90;;;;;;5072764;28;20042;-57
2020/12/25 01:50:08;;;;;;;19.42;3.63;;;11.20;99.90;;;;;;5072603;28;20047;-56
2020/12/25 01:53:16;;;;;;;18.13;2.40;;;11.20;99.90;;;;;;5073056;28;20056;-55
2020/12/25 01:56:20;;;;;;;21.92;2.92;;;11.10;99.90;;;;;;5081645;28;20438;-55
2020/12/25 01:59:25;;;;;;;10.05;2.22;;;11.00;99.90;;;;;;5072811;28;20055;-56
2020/12/25 02:02:30;;;;;;;12.73;2.35;;;11.00;99.90;;;;;;5079747;28;20031;-56
2020/12/25 02:05:35;;;;;;;15.73;2.53;;;11.10;99.90;;;;;;5072719;28;20048;-55
2020/12/25 02:08:40;;;;;;;19.33;2.45;;;11.10;99.90;;;;;;5072577;28;20055;-60
2020/12/25 02:11:44;;;;;;;15.57;2.20;;;11.10;99.90;;;;;;5071805;28;20059;-56
2020/12/25 02:14:48;;;;;;;12.77;1.92;;;11.10;99.90;;;;;;5072859;28;20406;-56
2020/12/25 02:17:52;;;;;;;19.75;2.58;;;11.00;99.90;;;;;;5077874;28;20051;-55
2020/12/25 02:21:01;;;;;;;15.25;2.10;;;11.20;99.90;;;;;;5075437;28;20047;-60
2020/12/25 02:24:08;;;;;;;11.30;2.35;;;11.20;99.90;;;;;;5071432;28;20067;-59
2020/12/25 02:27:12;;;;;;;13.30;2.05;;;11.20;99.90;;;;;;5072712;28;20052;-55
2020/12/25 02:30:16;;;;;;;18.48;2.75;;;11.10;99.90;;;;;;5071829;28;20509;-56
2020/12/25 02:33:20;;;;;;;8.70;1.77;;;11.10;99.90;;;;;;5072189;28;20048;-55
2020/12/25 02:36:24;;;;;;;14.45;3.10;;;11.10;99.90;;;;;;5072155;28;20039;-55
2020/12/25 02:39:28;;;;;;;15.00;1.90;;;11.10;99.90;;;;;;5071928;28;20051;-58
2020/12/25 02:42:32;;;;;;;13.32;2.13;;;11.20;99.90;;;;;;5071653;28;20616;-55
2020/12/25 02:45:36;;;;;;;12.35;1.88;;;11.20;99.90;;;;;;5072202;28;20047;-54
2020/12/25 02:48:40;;;;;;;14.35;3.17;;;11.30;99.90;;;;;;5071681;28;20048;-56
2020/12/25 02:51:46;;;;;;;14.30;2.55;;;11.30;99.90;;;;;;5080296;28;20043;-56
2020/12/25 02:54:50;;;;;;;17.67;2.42;;;11.20;99.90;;;;;;5071679;28;20051;-57
2020/12/25 02:57:54;;;;;;;13.57;2.10;;;11.20;99.90;;;;;;5071811;28;20043;-56
2020/12/25 03:00:58;;;;;;;15.57;2.08;;;11.10;99.90;;;;;;5071161;28;20044;-55
2020/12/25 03:04:02;;;;;;;16.13;2.15;;;11.30;99.90;;;;;;5071532;28;20055;-59
2020/12/25 03:07:06;;;;;;;15.75;1.88;;;11.30;99.90;;;;;;5071366;28;20047;-59
2020/12/25 03:10:10;;;;;;;16.90;1.80;;;11.20;99.90;;;;;;5070697;28;20525;-57
2020/12/25 03:13:14;;;;;;;18.05;1.90;;;11.10;99.90;;;;;;5071134;28;20047;-56
2020/12/25 03:16:20;;;;;;;12.73;2.10;;;11.00;99.90;;;;;;5070361;28;20059;-55
2020/12/25 03:19:24;;;;;;;13.63;2.13;;;11.10;99.90;;;;;;5070998;28;20035;-57
2020/12/25 03:22:28;;;;;;;14.18;2.75;;;11.10;99.90;;;;;;5070134;28;20035;-55
2020/12/25 03:25:32;;;;;;;20.67;2.75;;;11.10;99.90;;;;;;5070800;28;20247;-55
2020/12/25 03:28:36;;;;;;;6.28;1.70;;;11.10;99.90;;;;;;5070880;28;20031;-57
2020/12/25 03:31:40;;;;;;;13.00;2.25;;;11.20;99.90;;;;;;5070009;28;20044;-55
2020/12/25 03:34:44;;;;;;;13.43;2.50;;;11.10;99.90;;;;;;5070610;28;20051;-56
2020/12/25 03:37:48;;;;;;;12.23;2.00;;;11.10;99.90;;;;;;5070014;28;20042;-55
2020/12/25 03:40:53;;;;;;;11.63;1.90;;;11.30;99.90;;;;;;5070324;28;20055;-58
2020/12/25 03:43:57;;;;;;;13.25;2.20;;;11.30;99.90;;;;;;5070585;28;20051;-56
2020/12/25 03:47:01;;;;;;;12.05;2.05;;;11.20;99.90;;;;;;5070294;28;20047;-55
2020/12/25 03:50:06;;;;;;;16.67;2.60;;;11.30;99.90;;;;;;5069786;28;20047;-56
2020/12/25 03:53:10;;;;;;;9.95;2.08;;;11.00;99.90;;;;;;5069123;28;20051;-55
2020/12/25 03:56:15;;;;;;;14.13;1.80;;;11.00;99.90;;;;;;5069303;28;20532;-55
2020/12/25 03:59:19;;;;;;;14.02;1.92;;;11.00;99.90;;;;;;5070202;28;20063;-55
2020/12/25 04:02:24;;;;;;;12.05;1.92;;;11.10;99.90;;;;;;5073568;28;20052;-59
2020/12/25 04:05:28;;;;;;;11.77;1.60;;;11.30;99.90;;;;;;5070061;28;20044;-56
2020/12/25 04:08:31;;;;;;;12.23;1.80;;;11.30;99.90;;;;;;5069434;28;20513;-56
2020/12/25 04:11:36;;;;;;;12.48;2.20;;;11.30;99.90;;;;;;5069139;28;20043;-57
2020/12/25 04:14:40;;;;;;;8.32;2.42;;;11.00;99.90;;;;;;5069651;28;20048;-55
2020/12/25 04:17:44;;;;;;;10.93;1.63;;;11.00;99.90;;;;;;5069404;28;20051;-55
2020/12/25 04:20:48;;;;;;;16.30;2.15;;;11.00;99.90;;;;;;5069525;28;20047;-55
2020/12/25 04:23:52;;;;;;;14.43;2.00;;;11.00;99.90;;;;;;5069556;28;20045;-56
2020/12/25 04:26:56;;;;;;;16.83;2.67;;;11.10;99.90;;;;;;5069716;28;20459;-55
2020/12/25 04:30:01;;;;;;;17.92;2.80;;;11.20;99.90;;;;;;5069380;28;20051;-58
2020/12/25 04:33:05;;;;;;;16.30;1.90;;;11.20;99.90;;;;;;5069403;28;20047;-55
2020/12/25 04:36:09;;;;;;;14.07;3.13;;;11.10;99.90;;;;;;5069634;28;20051;-56
2020/12/25 04:39:13;;;;;;;16.92;1.90;;;11.10;99.90;;;;;;5069522;28;20051;-56
2020/12/25 04:42:17;;;;;;;18.23;2.42;;;11.20;99.90;;;;;;5069164;28;20609;-56
2020/12/25 04:45:21;;;;;;;18.25;2.33;;;11.30;99.90;;;;;;5069597;28;20098;-55
2020/12/25 04:48:25;;;;;;;9.93;1.90;;;11.30;99.90;;;;;;5069007;28;20047;-57
2020/12/25 04:51:30;;;;;;;15.00;2.00;;;11.20;99.90;;;;;;5077716;28;20056;-55
2020/12/25 04:54:34;;;;;;;22.30;3.10;;;11.10;99.90;;;;;;5069727;28;20517;-59
2020/12/25 04:57:38;;;;;;;14.15;2.95;;;11.20;99.90;;;;;;5066017;28;20047;-55
2020/12/25 05:00:42;;;;;;;15.90;2.78;;;11.20;99.90;;;;;;5069038;28;20047;-55
2020/12/25 05:03:46;;;;;;;17.83;2.40;;;11.00;99.90;;;;;;5068614;28;20055;-57
2020/12/25 05:06:52;;;;;;;14.57;2.58;;;10.90;99.90;;;;;;5068486;28;20048;-58
2020/12/25 05:09:58;;;;;;;19.52;2.10;;;10.90;99.90;;;;;;5068899;28;20039;-57
2020/12/25 05:13:02;;;;;;;15.13;2.30;;;10.90;99.90;;;;;;5068767;28;20437;-56
2020/12/25 05:16:06;;;;;;;13.10;2.03;;;10.90;99.90;;;;;;5068927;28;20039;-57
2020/12/25 05:19:12;;;;;;;15.63;2.50;;;10.90;99.90;;;;;;5069073;28;20411;-56
2020/12/25 05:22:19;;;;;;;16.63;2.35;;;10.90;99.90;;;;;;5068675;28;20039;-55
2020/12/25 05:25:23;;;;;;;18.77;2.10;;;10.90;99.90;;;;;;5069264;28;20039;-55
2020/12/25 05:28:29;;;;;;;23.60;2.38;;;11.00;99.90;;;;;;5068991;28;20509;-56
2020/12/25 05:31:34;;;;;;;22.38;2.25;;;11.10;99.90;;;;;;5068575;28;20052;-55
2020/12/25 05:34:38;;;;;;;27.45;3.10;;;11.00;99.90;;;;;;5068315;28;20048;-56
2020/12/25 05:37:42;;;;;;;10.18;1.98;;;11.00;99.90;;;;;;5068609;28;20044;-56
2020/12/25 05:40:46;;;;;;;19.25;3.50;;;11.00;99.90;;;;;;5068873;28;20063;-56
2020/12/25 05:43:53;;;;;;;17.50;2.00;;;11.00;99.90;;;;;;5068310;28;20055;-57
2020/12/25 05:47:00;;;;;;;13.50;2.15;;;11.10;99.90;;;;;;5068926;28;20055;-55
2020/12/25 05:50:07;;;;;;;13.50;2.28;;;11.10;99.90;;;;;;5068719;28;20102;-55
2020/12/25 05:53:11;;;;;;;12.35;2.95;;;10.90;99.90;;;;;;5068388;28;20051;-55
2020/12/25 05:56:15;;;;;;;10.63;1.90;;;10.90;99.90;;;;;;5068933;28;20044;-55
2020/12/25 05:59:31;;;;;;;14.05;3.03;;;10.90;99.90;;;;;;5070150;28;20039;-56
2020/12/25 06:02:35;;;;;;;14.00;3.58;;;11.00;99.90;;;;;;5078325;28;20525;-55
2020/12/25 06:05:46;;;;;;;21.02;1.85;;;10.90;99.90;;;;;;5086230;28;20035;-55
2020/12/25 06:09:04;;;;;;;17.27;2.30;;;10.90;99.90;;;;;;5059787;28;20529;-55
2020/12/25 06:12:09;;;;;;;12.25;2.50;;;11.00;99.90;;;;;;5091395;28;20034;-56
2020/12/25 06:15:27;;;;;;;10.93;1.83;;;10.90;99.90;;;;;;5089428;28;20039;-56
2020/12/25 06:19:22;;;;;;;15.23;2.30;;;10.90;99.90;;;;;;5085924;28;20043;-55
2020/12/25 06:22:36;;;;;;;14.40;2.45;;;10.90;99.90;;;;;;5065813;28;20043;-55
2020/12/25 06:25:41;;;;;;;15.40;2.10;;;10.90;99.90;;;;;;5090775;28;20418;-56
2020/12/25 06:28:48;;;;;;;22.55;2.42;;;10.90;99.90;;;;;;5092462;28;20505;-58
2020/12/25 06:31:57;;;;;;;8.60;2.13;;;10.90;99.90;;;;;;5092127;28;20039;-56
2020/12/25 06:35:02;;;;;;;13.73;1.80;;;10.80;99.90;;;;;;5080809;28;20211;-57
2020/12/25 06:38:11;;;;;;;12.18;1.88;;;10.90;99.90;;;;;;5079328;28;20065;-55
2020/12/25 06:41:17;;;;;;;12.48;1.67;;;10.90;99.90;;;;;;5088505;28;20047;-56
2020/12/25 06:44:22;;;;;;;13.20;2.40;;;10.90;99.90;;;;;;5089748;28;20040;-55
2020/12/25 06:47:33;;;;;;;13.77;1.63;;;10.90;99.90;;;;;;5090792;28;20051;-55
2020/12/25 06:50:45;;;;;;;15.43;2.42;;;10.80;99.90;;;;;;5084596;28;20410;-56
2020/12/25 06:53:54;;;;;;;11.68;2.83;;;10.70;99.90;;;;;;5087915;28;20038;-56
2020/12/25 06:56:59;;;;;;;14.52;2.55;;;10.80;99.90;;;;;;5084015;28;20039;-57
2020/12/25 07:00:05;;;;;;;14.50;2.72;;;10.60;99.90;;;;;;5091972;28;20043;-59
2020/12/25 07:03:13;;;;;;;9.07;2.63;;;10.30;99.90;;;;;;5094652;28;20039;-58
2020/12/25 07:06:23;;;;;;;15.48;2.63;;;9.90;99.90;;;;;;5092289;28;20382;-55
2020/12/25 07:09:35;;;;;;;17.33;2.40;;;9.60;99.90;;;;;;5088970;28;20034;-57
2020/12/25 07:12:39;;;;;;;17.05;2.42;;;9.50;99.90;;;;;;5090423;28;20043;-62
2020/12/25 07:15:46;;;;;;;10.52;2.10;;;9.40;99.90;;;;;;5098783;28;20039;-60
2020/12/25 07:18:50;;;;;;;22.05;3.95;;;9.40;99.90;;;;;;5097976;28;20050;-58
2020/12/25 07:21:54;;;;;;;14.32;2.53;;;9.50;99.90;;;;;;5093744;28;20611;-55
2020/12/25 07:24:58;;;;;;;13.40;2.63;;;9.50;99.90;;;;;;5097732;28;20074;-59
2020/12/25 07:28:02;;;;;;;21.95;2.88;;;9.60;99.90;;;;;;5100286;28;20042;-61
2020/12/25 07:31:07;;;;;;;14.85;3.17;;;9.60;99.90;;;;;;5092097;28;20047;-60
2020/12/25 07:34:15;;;;;;;18.45;3.05;;;9.70;99.90;;;;;;5092965;28;20039;-58
2020/12/25 07:37:19;;;;;;;17.52;2.42;;;9.60;99.90;;;;;;5097689;28;20058;-57
2020/12/25 07:40:24;;;;;;;9.40;1.85;;;9.70;99.90;;;;;;5086057;28;20500;-56
2020/12/25 07:43:28;;;;;;;14.88;2.70;;;9.80;99.90;;;;;;5087926;28;20028;-58
2020/12/25 07:46:33;;;;;;;14.25;2.72;;;10.00;99.90;;;;;;5088595;28;20043;-56
2020/12/25 07:49:44;;;;;;;15.85;2.72;;;10.20;99.90;;;;;;5088860;28;20050;-57
2020/12/25 07:52:48;;;;;;;17.27;2.00;;;10.30;99.90;;;;;;5084633;28;20047;-58
2020/12/25 07:55:53;;;;;;;14.57;2.97;;;10.40;99.90;;;;;;5092996;28;20412;-59
2020/12/25 07:58:58;;;;;;;27.73;4.47;;;10.40;99.90;;;;;;5073011;28;20044;-55
2020/12/25 08:02:02;;;;;;;16.70;2.78;;;10.60;99.90;;;;;;5088372;28;20035;-58
2020/12/25 08:05:10;;;;;;;15.90;2.55;;;10.80;99.90;;;;;;5085959;28;20051;-57
2020/12/25 08:08:15;;;;;;;31.02;9.63;;;11.10;99.90;;;;;;5095528;28;20035;-56
2020/12/25 08:11:21;;;;;;;15.88;3.40;;;11.40;99.90;;;;;;5091316;28;20043;-56
2020/12/25 08:14:27;;;;;;;19.15;5.38;;;11.50;99.90;;;;;;5089980;28;20055;-55
2020/12/25 08:17:31;;;;;;;16.83;4.88;;;11.80;99.90;;;;;;5087772;28;20530;-56
2020/12/25 08:20:35;;;;;;;12.23;2.72;;;12.10;99.90;;;;;;5085724;28;20043;-56
2020/12/25 08:23:39;;;;;;;13.00;2.40;;;12.30;99.90;;;;;;5087697;28;20504;-57
2020/12/25 08:26:46;;;;;;;14.68;3.53;;;12.30;99.90;;;;;;5088854;28;20043;-58
2020/12/25 08:29:51;;;;;;;14.93;2.30;;;12.30;99.90;;;;;;5090997;28;20054;-59
2020/12/25 08:33:00;;;;;;;12.50;2.00;;;12.30;99.90;;;;;;5104033;28;20065;-59
2020/12/25 08:36:10;;;;;;;14.23;3.33;;;12.40;99.90;;;;;;5093024;28;20047;-56
2020/12/25 08:39:26;;;;;;;8.85;2.20;;;12.20;99.90;;;;;;5088006;28;20036;-59
2020/12/25 08:42:30;;;;;;;15.88;2.30;;;12.00;99.90;;;;;;5085297;28;20031;-56
2020/12/25 08:45:34;;;;;;;19.63;3.83;;;11.70;99.90;;;;;;5086978;28;20047;-56
2020/12/25 08:48:51;;;;;;;20.40;5.25;;;11.50;99.90;;;;;;5088036;28;20516;-57
2020/12/25 08:51:55;;;;;;;13.85;3.85;;;11.40;99.90;;;;;;5082252;28;20066;-57
2020/12/25 08:55:00;;;;;;;21.67;2.88;;;11.30;99.90;;;;;;5088031;28;20043;-58
2020/12/25 08:58:05;;;;;;;10.38;2.65;;;11.40;99.90;;;;;;5088412;28;20035;-60
2020/12/25 09:01:10;;;;;;;17.73;3.67;;;11.50;99.90;;;;;;5087724;28;20031;-55
2020/12/25 09:04:16;;;;;;;11.50;2.75;;;11.50;99.90;;;;;;5095112;28;20043;-58
2020/12/25 09:07:20;;;;;;;16.33;1.83;;;11.90;99.90;;;;;;5094289;28;20055;-55
2020/12/25 09:10:24;;;;;;;12.68;2.35;;;12.50;99.90;;;;;;5095680;28;20540;-59
2020/12/25 09:13:27;;;;;;;10.55;2.38;;;14.50;99.90;;;;;;5095935;28;20535;-60
2020/12/25 09:16:32;;;;;;;12.63;2.35;;;15.00;99.90;;;;;;5088680;28;20055;-59
2020/12/25 09:19:36;;;;;;;12.23;1.45;;;14.80;99.90;;;;;;5079432;28;20044;-58
2020/12/25 09:22:40;;;;;;;18.50;2.72;;;14.70;99.90;;;;;;5078506;28;20055;-53
2020/12/25 09:25:45;;;;;;;11.45;1.80;;;14.70;99.90;;;;;;5092602;28;20588;-58
2020/12/25 09:28:49;;;;;;;14.13;1.90;;;14.70;99.90;;;;;;5089642;28;20039;-58
2020/12/25 09:31:54;;;;;;;11.07;1.92;;;15.50;99.90;;;;;;5084006;28;20043;-59
2020/12/25 09:34:58;;;;;;;9.13;2.20;;;19.20;99.90;;;;;;5084547;28;20398;-58
2020/12/25 09:38:02;;;;;;;8.18;1.92;;;18.80;99.90;;;;;;5092591;28;20547;-59
2020/12/25 09:41:06;;;;;;;7.90;1.73;;;21.10;99.90;;;;;;5081890;28;20114;-59
2020/12/25 09:44:10;;;;;;;12.95;2.92;;;22.50;98.10;;;;;;5083706;28;20039;-58
2020/12/25 09:47:18;;;;;;;10.65;2.05;;;23.90;93.80;;;;;;5086011;28;20039;-58
2020/12/25 09:50:22;;;;;;;15.05;2.33;;;20.50;93.60;;;;;;5085091;28;20039;-58
2020/12/25 09:53:26;;;;;;;11.07;2.42;;;17.70;99.90;;;;;;5085555;28;20398;-58
2020/12/25 09:56:31;;;;;;;13.55;2.25;;;16.40;99.90;;;;;;5098666;28;20050;-55
2020/12/25 09:59:35;;;;;;;12.90;1.77;;;16.00;99.90;;;;;;5100059;28;20043;-57
2020/12/25 10:02:40;;;;;;;8.48;1.67;;;15.30;99.90;;;;;;5085655;28;20038;-58
2020/12/25 10:05:44;;;;;;;10.98;2.78;;;14.90;99.90;;;;;;5089400;28;20402;-59
2020/12/25 10:08:48;;;;;;;15.10;2.78;;;13.80;99.90;;;;;;5094727;28;20622;-54
2020/12/25 10:11:54;;;;;;;13.48;1.90;;;13.30;99.90;;;;;;5087149;28;20039;-58
2020/12/25 10:14:59;;;;;;;10.63;1.80;;;13.10;99.90;;;;;;5080470;28;20048;-57
2020/12/25 10:18:03;;;;;;;13.52;2.53;;;13.10;99.90;;;;;;5081342;28;20039;-57
2020/12/25 10:21:07;;;;;;;13.13;1.88;;;12.80;99.90;;;;;;5088082;28;20039;-55
2020/12/25 10:24:11;;;;;;;12.60;2.20;;;12.90;99.90;;;;;;5082908;28;20528;-59
2020/12/25 10:27:15;;;;;;;14.05;2.28;;;12.60;99.90;;;;;;5090733;28;20121;-56
2020/12/25 10:30:19;;;;;;;19.08;2.60;;;12.40;99.90;;;;;;5086619;28;20047;-58
2020/12/25 10:33:23;;;;;;;16.27;2.55;;;12.40;99.90;;;;;;5086365;28;20047;-57
2020/12/25 10:36:28;;;;;;;17.15;2.15;;;12.50;99.90;;;;;;5088480;28;20062;-60
2020/12/25 10:39:32;;;;;;;15.93;3.38;;;12.00;99.90;;;;;;5087523;28;20039;-58
2020/12/25 10:42:36;;;;;;;14.43;3.55;;;12.00;99.90;;;;;;5077163;28;20051;-60
2020/12/25 10:45:40;;;;;;;16.13;4.10;;;12.10;99.90;;;;;;5084480;28;20040;-54
2020/12/25 10:48:44;;;;;;;10.48;2.42;;;12.30;99.90;;;;;;5084600;28;20496;-57
2020/12/25 10:51:48;;;;;;;12.23;2.38;;;11.90;99.90;;;;;;5090071;28;20291;-58
2020/12/25 10:54:52;;;;;;;13.68;3.58;;;11.70;99.90;;;;;;5080433;28;20065;-59
2020/12/25 10:57:56;;;;;;;14.13;3.05;;;11.70;99.90;;;;;;5077339;28;20044;-56
2020/12/25 11:01:00;;;;;;;18.73;3.92;;;11.60;99.90;;;;;;5084606;28;20227;-59
2020/12/25 11:04:04;;;;;;;22.05;4.40;;;11.60;99.90;;;;;;5084845;28;20043;-58
2020/12/25 11:22:06;;;;;;;8.13;1.90;;;12.70;99.90;;;;;;5090675;28;20055;-55
2020/12/25 11:25:10;;;;;;;8.85;3.47;;;12.00;99.90;;;;;;5086525;28;20544;-60
2020/12/25 11:28:14;;;;;;;13.95;7.47;;;11.70;99.90;;;;;;5077444;28;20042;-57
2020/12/25 11:31:19;;;;;;;10.60;4.25;;;11.80;99.90;;;;;;5090210;28;20426;-59
2020/12/25 11:34:24;;;;;;;15.10;6.13;;;11.90;99.90;;;;;;5090470;28;20405;-59
2020/12/25 11:37:28;;;;;;;7.82;2.63;;;12.10;99.90;;;;;;5063441;28;20043;-59
2020/12/25 11:40:32;;;;;;;9.15;2.67;;;12.20;99.90;;;;;;5089988;28;20417;-57
2020/12/25 11:43:37;;;;;;;5.78;2.67;;;12.10;99.90;;;;;;5090256;28;20046;-55
2020/12/25 11:46:41;;;;;;;9.57;3.42;;;12.20;99.90;;;;;;5090343;28;20077;-58
2020/12/25 11:49:44;;;;;;;6.10;1.75;;;12.00;99.90;;;;;;5090320;28;20047;-58
2020/12/25 11:52:49;;;;;;;9.45;2.45;;;11.50;99.90;;;;;;5090233;28;20052;-58
2020/12/25 11:55:54;;;;;;;10.32;1.90;;;11.50;99.90;;;;;;5090225;28;20043;-57
2020/12/25 11:58:59;;;;;;;10.63;2.78;;;11.80;99.90;;;;;;5089686;28;20047;-55
2020/12/25 12:02:03;;;;;;;10.57;2.58;;;12.10;99.90;;;;;;5089798;28;20409;-57
2020/12/25 12:05:07;;;;;;;8.30;2.38;;;12.70;99.90;;;;;;5079925;28;20139;-58
2020/12/25 12:08:12;;;;;;;8.15;2.15;;;13.00;99.90;;;;;;5075242;28;20281;-59
2020/12/25 12:11:16;;;;;;;7.15;2.35;;;12.60;99.90;;;;;;5089565;28;20051;-57
2020/12/25 12:14:21;;;;;;;9.25;2.47;;;12.40;99.90;;;;;;5089889;28;20046;-58
2020/12/25 12:17:25;;;;;;;8.45;2.35;;;13.10;99.90;;;;;;5089815;28;20043;-58
2020/12/25 12:20:29;;;;;;;9.05;3.63;;;16.50;99.90;;;;;;5089857;28;20032;-60
2020/12/25 12:23:33;;;;;;;4.65;1.52;;;17.00;99.90;;;;;;5089893;28;20043;-56
2020/12/25 12:26:37;;;;;;;9.05;3.70;;;15.80;99.90;;;;;;5090049;28;20334;-57
2020/12/25 12:29:41;;;;;;;9.40;2.13;;;17.20;99.90;;;;;;5090302;28;20047;-59
2020/12/25 12:32:45;;;;;;;7.07;2.60;;;15.90;99.90;;;;;;5089748;28;20047;-60
2020/12/25 12:35:50;;;;;;;11.52;3.20;;;13.40;99.90;;;;;;5077505;28;20046;-57
2020/12/25 12:38:54;;;;;;;23.67;16.80;;;13.40;99.90;;;;;;5088706;28;20054;-56
2020/12/25 12:41:59;;;;;;;10.73;5.07;;;14.30;99.90;;;;;;5089121;28;20043;-58
2020/12/25 12:45:04;;;;;;;10.23;2.72;;;14.20;99.90;;;;;;5089401;28;20035;-59
2020/12/25 12:48:08;;;;;;;11.98;4.63;;;13.30;99.90;;;;;;5089659;28;20043;-57
2020/12/25 12:51:15;;;;;;;8.60;2.75;;;13.50;99.90;;;;;;5089320;28;20539;-55
2020/12/25 12:54:19;;;;;;;10.30;5.15;;;14.10;99.90;;;;;;5089454;28;20043;-59
2020/12/25 12:57:23;;;;;;;9.25;4.13;;;14.80;99.90;;;;;;5089552;28;20524;-58
2020/12/25 13:00:26;;;;;;;14.57;6.82;;;14.80;99.90;;;;;;5089117;28;20047;-56
2020/12/25 13:03:32;;;;;;;8.45;3.80;;;15.10;99.90;;;;;;5089973;28;20043;-59
2020/12/25 13:06:36;;;;;;;12.00;3.95;;;15.70;99.90;;;;;;5089633;28;20043;-55
2020/12/25 13:09:41;;;;;;;13.43;4.57;;;16.00;99.90;;;;;;5089233;28;20063;-57
2020/12/25 13:12:46;;;;;;;15.32;6.38;;;15.80;99.90;;;;;;5089776;28;20067;-57
2020/12/25 13:15:49;;;;;;;11.00;3.10;;;14.90;99.90;;;;;;5079525;28;20051;-57
2020/12/25 13:18:54;;;;;;;22.88;8.93;;;14.10;99.90;;;;;;5089023;28;20043;-57
2020/12/25 13:21:58;;;;;;;20.50;7.60;;;13.60;99.90;;;;;;5089572;28;20043;-58
2020/12/25 13:25:02;;;;;;;6.80;1.75;;;13.00;99.90;;;;;;5089402;28;20047;-59
2020/12/25 13:28:07;;;;;;;11.27;3.05;;;12.70;99.90;;;;;;5089819;28;20046;-57
2020/12/25 13:31:21;;;;;;;9.48;2.10;;;12.60;99.90;;;;;;5089304;28;20070;-59
2020/12/25 13:34:25;;;;;;;12.23;5.47;;;12.50;99.90;;;;;;5089731;28;20033;-57
2020/12/25 13:37:29;;;;;;;11.32;2.63;;;12.60;99.90;;;;;;5089672;28;20414;-57
2020/12/25 13:40:33;;;;;;;15.80;3.70;;;12.40;99.90;;;;;;5088451;28;20043;-60
2020/12/25 13:43:37;;;;;;;10.05;2.85;;;12.40;99.90;;;;;;5089275;28;20047;-56
2020/12/25 13:46:46;;;;;;;20.20;2.90;;;12.30;99.90;;;;;;5089175;28;20043;-59
2020/12/25 13:49:50;;;;;;;8.98;2.50;;;11.90;99.90;;;;;;5088925;28;20058;-59
2020/12/25 13:52:54;;;;;;;14.93;3.80;;;11.70;99.90;;;;;;5089409;28;20412;-56
2020/12/25 13:55:59;;;;;;;11.02;4.43;;;11.60;99.90;;;;;;5089133;28;20051;-56
2020/12/25 13:59:04;;;;;;;9.52;2.58;;;11.90;99.90;;;;;;5089087;28;20075;-59
2020/12/25 14:02:08;;;;;;;15.43;2.25;;;12.30;99.90;;;;;;5088765;28;20055;-59
2020/12/25 14:05:12;;;;;;;17.23;2.63;;;13.30;99.90;;;;;;5079475;28;20409;-59
2020/12/25 14:08:16;;;;;;;10.50;1.52;;;14.10;99.90;;;;;;5089066;28;20055;-59
2020/12/25 14:11:20;;;;;;;8.15;2.20;;;14.90;99.90;;;;;;5088611;28;20524;-59
2020/12/25 14:14:24;;;;;;;11.45;2.05;;;14.90;99.90;;;;;;5089266;28;20067;-58
2020/12/25 14:17:29;;;;;;;9.30;2.38;;;15.20;99.90;;;;;;5089031;28;20067;-58
2020/12/25 14:20:33;;;;;;;10.88;1.75;;;16.00;99.90;;;;;;5090732;28;20035;-56
2020/12/25 14:23:37;;;;;;;17.63;2.08;;;15.10;99.90;;;;;;5092695;28;20062;-59
2020/12/25 14:26:47;;;;;;;6.88;1.70;;;15.80;99.90;;;;;;5092601;28;20042;-59
2020/12/25 14:29:51;;;;;;;11.52;1.60;;;15.50;99.90;;;;;;5091500;28;20036;-58
2020/12/25 14:32:58;;;;;;;10.93;1.70;;;15.50;99.90;;;;;;5092017;28;20050;-56
2020/12/25 14:36:02;;;;;;;10.77;2.20;;;16.30;99.50;;;;;;5092396;28;20055;-57
2020/12/25 14:39:08;;;;;;;7.60;1.65;;;15.10;98.30;;;;;;5091400;28;20063;-57
2020/12/25 14:42:14;;;;;;;8.10;1.48;;;14.50;98.10;;;;;;5091850;28;20039;-59
2020/12/25 14:45:18;;;;;;;10.32;1.73;;;15.00;97.40;;;;;;5091769;28;20039;-58
2020/12/25 14:48:22;;;;;;;5.85;1.70;;;14.70;98.00;;;;;;5091860;28;20043;-58
2020/12/25 14:51:26;;;;;;;8.75;1.80;;;14.30;97.10;;;;;;5091345;28;20039;-55
2020/12/25 14:54:30;;;;;;;10.30;1.77;;;14.10;98.70;;;;;;5091723;28;20039;-58
2020/12/25 14:57:34;;;;;;;6.60;1.85;;;13.90;98.40;;;;;;5091448;28;20039;-56
2020/12/25 15:00:39;;;;;;;13.90;3.30;;;13.30;99.40;;;;;;5090720;28;20043;-56
2020/12/25 15:03:44;;;;;;;9.20;1.55;;;12.80;99.90;;;;;;5091837;28;20039;-57
2020/12/25 15:06:48;;;;;;;8.05;1.92;;;12.20;99.90;;;;;;5091492;28;20036;-58
2020/12/25 15:09:52;;;;;;;9.25;1.80;;;11.60;99.90;;;;;;5091470;28;20048;-57
2020/12/25 15:12:57;;;;;;;8.65;1.50;;;11.50;99.90;;;;;;5091361;28;20051;-61
2020/12/25 15:16:01;;;;;;;6.70;1.58;;;11.40;99.90;;;;;;5091601;28;20039;-55
2020/12/25 15:19:05;;;;;;;12.43;3.17;;;11.40;99.90;;;;;;5091250;28;20051;-57
2020/12/25 15:22:09;;;;;;;10.95;3.05;;;11.30;99.90;;;;;;5076572;28;20090;-59
2020/12/25 15:25:14;;;;;;;14.50;3.30;;;11.30;99.90;;;;;;5088441;28;20039;-56
2020/12/25 15:28:18;;;;;;;11.43;3.03;;;11.40;99.90;;;;;;5089757;28;20047;-59
2020/12/25 15:31:22;;;;;;;10.18;2.50;;;11.60;99.90;;;;;;5088610;28;20509;-55
2020/12/25 15:34:28;;;;;;;12.38;3.08;;;11.50;99.90;;;;;;5091192;28;20043;-55
2020/12/25 15:37:32;;;;;;;11.05;3.13;;;11.50;99.90;;;;;;5084775;28;20051;-56
2020/12/25 15:40:36;;;;;;;12.25;2.33;;;11.20;99.90;;;;;;5090360;28;20051;-55
2020/12/25 15:43:40;;;;;;;14.15;3.00;;;10.90;99.90;;;;;;5078045;28;20065;-58
2020/12/25 15:46:44;;;;;;;12.18;2.33;;;10.70;99.90;;;;;;5089999;28;20406;-56
2020/12/25 15:49:49;;;;;;;10.13;2.53;;;10.50;99.90;;;;;;5090461;28;20060;-57
2020/12/25 15:52:53;;;;;;;12.65;2.67;;;10.50;99.90;;;;;;5090040;28;20047;-57
2020/12/25 15:55:56;;;;;;;15.73;2.33;;;10.50;99.90;;;;;;5090622;28;20047;-59
2020/12/25 15:59:01;;;;;;;11.32;2.10;;;10.40;99.90;;;;;;5090147;28;20051;-58
2020/12/25 16:02:05;;;;;;;14.95;2.28;;;10.40;99.90;;;;;;5089248;28;20031;-57
2020/12/25 16:05:09;;;;;;;12.02;2.38;;;10.30;99.90;;;;;;5089991;28;20051;-57
2020/12/25 16:08:13;;;;;;;14.80;1.90;;;10.40;99.90;;;;;;5090317;28;20047;-58